sensor_id;sensor_type;location;lat;lon;timestamp;P1;durP1;ratioP1;P2;durP2;ratioP2
45274;SDS011;31019;43.780;25.948;2023-02-18T00:02:02;38.40;;;34.72;;
45274;SDS011;31019;43.780;25.948;2023-02-18T00:04:29;42.47;;;38.08;;
45274;SDS011;31019;43.780;25.948;2023-02-18T00:06:56;41.80;;;37.72;;
45274;SDS011;31019;43.780;25.948;2023-02-18T00:09:23;42.45;;;37.92;;
45274;SDS011;31019;43.780;25.948;2023-02-18T00:11:51;39.35;;;35.45;;
45274;SDS011;31019;43.780;25.948;2023-02-18T00:14:18;44.97;;;40.95;;
45274;SDS011;31019;43.780;25.948;2023-02-18T00:16:45;49.42;;;44.83;;
45274;SDS011;31019;43.780;25.948;2023-02-18T00:19:12;46.47;;;41.85;;
45274;SDS011;31019;43.780;25.948;2023-02-18T00:21:41;38.38;;;34.22;;
45274;SDS011;31019;43.780;25.948;2023-02-18T00:24:09;39.60;;;35.15;;
45274;SDS011;31019;43.780;25.948;2023-02-18T00:26:39;40.47;;;36.35;;
45274;SDS011;31019;43.780;25.948;2023-02-18T00:29:07;40.33;;;36.22;;
45274;SDS011;31019;43.780;25.948;2023-02-18T00:31:34;42.53;;;38.33;;
45274;SDS011;31019;43.780;25.948;2023-02-18T00:34:02;42.65;;;38.45;;
45274;SDS011;31019;43.780;25.948;2023-02-18T00:36:30;37.97;;;34.58;;
45274;SDS011;31019;43.780;25.948;2023-02-18T00:38:57;42.67;;;38.25;;
45274;SDS011;31019;43.780;25.948;2023-02-18T00:41:26;42.13;;;36.20;;
45274;SDS011;31019;43.780;25.948;2023-02-18T00:43:54;44.03;;;38.47;;
45274;SDS011;31019;43.780;25.948;2023-02-18T00:46:23;41.35;;;37.05;;
45274;SDS011;31019;43.780;25.948;2023-02-18T00:48:50;45.03;;;40.40;;
45274;SDS011;31019;43.780;25.948;2023-02-18T00:51:17;40.05;;;35.80;;
45274;SDS011;31019;43.780;25.948;2023-02-18T00:53:44;42.28;;;37.80;;
45274;SDS011;31019;43.780;25.948;2023-02-18T00:56:10;44.63;;;40.00;;
45274;SDS011;31019;43.780;25.948;2023-02-18T00:58:37;42.38;;;38.30;;
45274;SDS011;31019;43.780;25.948;2023-02-18T01:01:05;48.85;;;44.08;;
45274;SDS011;31019;43.780;25.948;2023-02-18T01:03:34;47.45;;;42.83;;
45274;SDS011;31019;43.780;25.948;2023-02-18T01:06:00;48.90;;;43.67;;
45274;SDS011;31019;43.780;25.948;2023-02-18T01:08:27;39.65;;;35.17;;
45274;SDS011;31019;43.780;25.948;2023-02-18T01:10:54;43.15;;;38.70;;
45274;SDS011;31019;43.780;25.948;2023-02-18T01:13:23;45.63;;;40.88;;
45274;SDS011;31019;43.780;25.948;2023-02-18T01:15:51;42.33;;;36.33;;
45274;SDS011;31019;43.780;25.948;2023-02-18T01:18:18;44.60;;;40.03;;
45274;SDS011;31019;43.780;25.948;2023-02-18T01:20:47;46.88;;;41.80;;
45274;SDS011;31019;43.780;25.948;2023-02-18T01:23:14;44.90;;;38.15;;
45274;SDS011;31019;43.780;25.948;2023-02-18T01:25:41;42.03;;;37.83;;
45274;SDS011;31019;43.780;25.948;2023-02-18T01:28:08;47.80;;;43.13;;
45274;SDS011;31019;43.780;25.948;2023-02-18T01:30:37;49.17;;;44.40;;
45274;SDS011;31019;43.780;25.948;2023-02-18T01:33:04;45.45;;;40.72;;
45274;SDS011;31019;43.780;25.948;2023-02-18T01:35:31;54.08;;;49.40;;
45274;SDS011;31019;43.780;25.948;2023-02-18T01:38:00;52.60;;;47.90;;
45274;SDS011;31019;43.780;25.948;2023-02-18T01:40:27;42.17;;;37.67;;
45274;SDS011;31019;43.780;25.948;2023-02-18T01:42:55;41.60;;;37.17;;
45274;SDS011;31019;43.780;25.948;2023-02-18T01:48:31;48.20;;;43.30;;
45274;SDS011;31019;43.780;25.948;2023-02-18T01:51:04;51.65;;;43.65;;
45274;SDS011;31019;43.780;25.948;2023-02-18T01:53:39;81.95;;;52.65;;
45274;SDS011;31019;43.780;25.948;2023-02-18T01:56:12;42.00;;;37.58;;
45274;SDS011;31019;43.780;25.948;2023-02-18T01:58:45;42.25;;;37.88;;
45274;SDS011;31019;43.780;25.948;2023-02-18T02:01:13;40.33;;;36.38;;
45274;SDS011;31019;43.780;25.948;2023-02-18T02:03:39;40.30;;;36.25;;
45274;SDS011;31019;43.780;25.948;2023-02-18T02:06:10;44.38;;;40.38;;
45274;SDS011;31019;43.780;25.948;2023-02-18T02:08:42;42.70;;;38.70;;
45274;SDS011;31019;43.780;25.948;2023-02-18T02:11:16;37.38;;;33.58;;
45274;SDS011;31019;43.780;25.948;2023-02-18T02:16:47;44.95;;;40.83;;
45274;SDS011;31019;43.780;25.948;2023-02-18T02:19:35;45.20;;;41.40;;
45274;SDS011;31019;43.780;25.948;2023-02-18T02:22:30;37.58;;;34.10;;
45274;SDS011;31019;43.780;25.948;2023-02-18T02:25:25;43.15;;;39.45;;
45274;SDS011;31019;43.780;25.948;2023-02-18T02:31:20;53.33;;;48.53;;
45274;SDS011;31019;43.780;25.948;2023-02-18T02:37:11;44.00;;;40.22;;
45274;SDS011;31019;43.780;25.948;2023-02-18T02:42:16;43.50;;;39.40;;
45274;SDS011;31019;43.780;25.948;2023-02-18T02:44:52;42.65;;;38.85;;
45274;SDS011;31019;43.780;25.948;2023-02-18T02:47:25;42.13;;;38.47;;
45274;SDS011;31019;43.780;25.948;2023-02-18T02:49:59;57.15;;;52.95;;
45274;SDS011;31019;43.780;25.948;2023-02-18T02:52:32;47.17;;;43.63;;
45274;SDS011;31019;43.780;25.948;2023-02-18T02:55:03;42.25;;;36.45;;
45274;SDS011;31019;43.780;25.948;2023-02-18T02:57:44;38.97;;;35.63;;
45274;SDS011;31019;43.780;25.948;2023-02-18T03:00:14;38.67;;;35.35;;
45274;SDS011;31019;43.780;25.948;2023-02-18T03:02:48;39.47;;;36.15;;
45274;SDS011;31019;43.780;25.948;2023-02-18T03:05:31;40.40;;;36.63;;
45274;SDS011;31019;43.780;25.948;2023-02-18T03:08:13;32.53;;;29.30;;
45274;SDS011;31019;43.780;25.948;2023-02-18T03:10:52;38.13;;;35.10;;
45274;SDS011;31019;43.780;25.948;2023-02-18T03:13:27;36.78;;;33.70;;
45274;SDS011;31019;43.780;25.948;2023-02-18T03:16:06;47.90;;;44.15;;
45274;SDS011;31019;43.780;25.948;2023-02-18T03:18:42;39.10;;;35.75;;
45274;SDS011;31019;43.780;25.948;2023-02-18T03:21:15;40.75;;;37.55;;
45274;SDS011;31019;43.780;25.948;2023-02-18T03:23:48;36.17;;;32.67;;
45274;SDS011;31019;43.780;25.948;2023-02-18T03:26:21;35.40;;;32.60;;
45274;SDS011;31019;43.780;25.948;2023-02-18T03:28:51;53.60;;;50.00;;
45274;SDS011;31019;43.780;25.948;2023-02-18T03:31:22;43.22;;;39.80;;
45274;SDS011;31019;43.780;25.948;2023-02-18T03:33:54;47.15;;;43.80;;
45274;SDS011;31019;43.780;25.948;2023-02-18T03:36:26;40.42;;;37.20;;
45274;SDS011;31019;43.780;25.948;2023-02-18T03:38:55;36.03;;;33.05;;
45274;SDS011;31019;43.780;25.948;2023-02-18T03:41:26;35.28;;;32.08;;
45274;SDS011;31019;43.780;25.948;2023-02-18T03:43:53;37.70;;;34.70;;
45274;SDS011;31019;43.780;25.948;2023-02-18T03:46:25;42.88;;;39.42;;
45274;SDS011;31019;43.780;25.948;2023-02-18T03:48:52;42.15;;;38.70;;
45274;SDS011;31019;43.780;25.948;2023-02-18T03:51:19;42.08;;;38.72;;
45274;SDS011;31019;43.780;25.948;2023-02-18T03:53:48;34.03;;;31.33;;
45274;SDS011;31019;43.780;25.948;2023-02-18T03:56:15;38.97;;;35.97;;
45274;SDS011;31019;43.780;25.948;2023-02-18T03:58:42;33.72;;;31.00;;
45274;SDS011;31019;43.780;25.948;2023-02-18T04:01:09;39.30;;;36.20;;
45274;SDS011;31019;43.780;25.948;2023-02-18T04:03:36;36.80;;;34.08;;
45274;SDS011;31019;43.780;25.948;2023-02-18T04:06:02;41.60;;;38.63;;
45274;SDS011;31019;43.780;25.948;2023-02-18T04:08:30;35.78;;;33.08;;
45274;SDS011;31019;43.780;25.948;2023-02-18T04:10:58;38.42;;;35.63;;
45274;SDS011;31019;43.780;25.948;2023-02-18T04:13:25;40.53;;;37.65;;
45274;SDS011;31019;43.780;25.948;2023-02-18T04:15:52;41.47;;;38.65;;
45274;SDS011;31019;43.780;25.948;2023-02-18T04:18:19;34.33;;;31.73;;
45274;SDS011;31019;43.780;25.948;2023-02-18T04:20:46;34.33;;;31.98;;
45274;SDS011;31019;43.780;25.948;2023-02-18T04:23:13;40.00;;;37.15;;
45274;SDS011;31019;43.780;25.948;2023-02-18T04:25:40;39.17;;;36.17;;
45274;SDS011;31019;43.780;25.948;2023-02-18T04:28:08;35.20;;;32.53;;
45274;SDS011;31019;43.780;25.948;2023-02-18T04:30:37;37.60;;;34.38;;
45274;SDS011;31019;43.780;25.948;2023-02-18T04:33:04;31.58;;;28.98;;
45274;SDS011;31019;43.780;25.948;2023-02-18T04:35:30;33.03;;;30.45;;
45274;SDS011;31019;43.780;25.948;2023-02-18T04:37:57;34.10;;;31.50;;
45274;SDS011;31019;43.780;25.948;2023-02-18T04:40:24;37.33;;;34.70;;
45274;SDS011;31019;43.780;25.948;2023-02-18T04:42:54;39.33;;;36.17;;
45274;SDS011;31019;43.780;25.948;2023-02-18T04:45:22;42.63;;;39.33;;
45274;SDS011;31019;43.780;25.948;2023-02-18T04:47:49;34.95;;;32.45;;
45274;SDS011;31019;43.780;25.948;2023-02-18T04:50:16;35.00;;;32.35;;
45274;SDS011;31019;43.780;25.948;2023-02-18T04:52:43;38.95;;;36.17;;
45274;SDS011;31019;43.780;25.948;2023-02-18T04:55:10;35.75;;;33.08;;
45274;SDS011;31019;43.780;25.948;2023-02-18T04:57:37;40.78;;;38.00;;
45274;SDS011;31019;43.780;25.948;2023-02-18T05:00:04;39.03;;;36.20;;
45274;SDS011;31019;43.780;25.948;2023-02-18T05:02:34;40.63;;;37.80;;
45274;SDS011;31019;43.780;25.948;2023-02-18T05:05:01;35.50;;;32.80;;
45274;SDS011;31019;43.780;25.948;2023-02-18T05:07:27;29.33;;;27.23;;
45274;SDS011;31019;43.780;25.948;2023-02-18T05:09:54;33.55;;;31.13;;
45274;SDS011;31019;43.780;25.948;2023-02-18T05:12:21;32.15;;;29.65;;
45274;SDS011;31019;43.780;25.948;2023-02-18T05:14:47;32.72;;;30.15;;
45274;SDS011;31019;43.780;25.948;2023-02-18T05:17:14;34.47;;;31.55;;
45274;SDS011;31019;43.780;25.948;2023-02-18T05:19:42;33.83;;;31.20;;
45274;SDS011;31019;43.780;25.948;2023-02-18T05:22:09;28.80;;;26.55;;
45274;SDS011;31019;43.780;25.948;2023-02-18T05:24:36;29.20;;;26.77;;
45274;SDS011;31019;43.780;25.948;2023-02-18T05:27:03;28.73;;;26.27;;
45274;SDS011;31019;43.780;25.948;2023-02-18T05:29:29;29.98;;;27.63;;
45274;SDS011;31019;43.780;25.948;2023-02-18T05:31:56;29.90;;;27.55;;
45274;SDS011;31019;43.780;25.948;2023-02-18T05:34:23;28.52;;;26.13;;
45274;SDS011;31019;43.780;25.948;2023-02-18T05:36:51;28.85;;;26.40;;
45274;SDS011;31019;43.780;25.948;2023-02-18T05:39:18;29.98;;;27.38;;
45274;SDS011;31019;43.780;25.948;2023-02-18T05:41:45;27.48;;;25.00;;
45274;SDS011;31019;43.780;25.948;2023-02-18T05:44:11;28.70;;;26.17;;
45274;SDS011;31019;43.780;25.948;2023-02-18T05:46:57;29.88;;;27.38;;
45274;SDS011;31019;43.780;25.948;2023-02-18T05:49:26;27.02;;;24.52;;
45274;SDS011;31019;43.780;25.948;2023-02-18T05:51:54;29.55;;;27.05;;
45274;SDS011;31019;43.780;25.948;2023-02-18T05:54:22;29.70;;;26.75;;
45274;SDS011;31019;43.780;25.948;2023-02-18T05:56:49;31.15;;;28.38;;
45274;SDS011;31019;43.780;25.948;2023-02-18T05:59:16;33.63;;;30.20;;
45274;SDS011;31019;43.780;25.948;2023-02-18T06:01:43;27.23;;;25.00;;
45274;SDS011;31019;43.780;25.948;2023-02-18T06:04:10;29.33;;;26.48;;
45274;SDS011;31019;43.780;25.948;2023-02-18T06:06:37;26.73;;;24.17;;
45274;SDS011;31019;43.780;25.948;2023-02-18T06:09:05;27.50;;;25.20;;
45274;SDS011;31019;43.780;25.948;2023-02-18T06:11:33;31.60;;;29.08;;
45274;SDS011;31019;43.780;25.948;2023-02-18T06:14:00;28.02;;;25.58;;
45274;SDS011;31019;43.780;25.948;2023-02-18T06:16:28;28.08;;;25.70;;
45274;SDS011;31019;43.780;25.948;2023-02-18T06:18:55;27.30;;;25.02;;
45274;SDS011;31019;43.780;25.948;2023-02-18T06:21:21;26.25;;;24.08;;
45274;SDS011;31019;43.780;25.948;2023-02-18T06:23:48;27.73;;;25.33;;
45274;SDS011;31019;43.780;25.948;2023-02-18T06:26:16;27.65;;;25.35;;
45274;SDS011;31019;43.780;25.948;2023-02-18T06:28:43;28.08;;;25.77;;
45274;SDS011;31019;43.780;25.948;2023-02-18T06:31:10;26.02;;;23.75;;
45274;SDS011;31019;43.780;25.948;2023-02-18T06:33:36;27.02;;;24.52;;
45274;SDS011;31019;43.780;25.948;2023-02-18T06:36:04;25.20;;;22.88;;
45274;SDS011;31019;43.780;25.948;2023-02-18T06:38:33;25.65;;;23.35;;
45274;SDS011;31019;43.780;25.948;2023-02-18T06:41:00;31.10;;;28.50;;
45274;SDS011;31019;43.780;25.948;2023-02-18T06:43:29;27.95;;;25.45;;
45274;SDS011;31019;43.780;25.948;2023-02-18T06:45:56;28.58;;;26.25;;
45274;SDS011;31019;43.780;25.948;2023-02-18T06:48:22;28.20;;;25.45;;
45274;SDS011;31019;43.780;25.948;2023-02-18T06:50:49;26.65;;;24.55;;
45274;SDS011;31019;43.780;25.948;2023-02-18T06:53:16;28.23;;;26.02;;
45274;SDS011;31019;43.780;25.948;2023-02-18T06:55:43;25.25;;;23.15;;
45274;SDS011;31019;43.780;25.948;2023-02-18T06:58:10;27.30;;;24.98;;
45274;SDS011;31019;43.780;25.948;2023-02-18T07:00:39;29.52;;;27.17;;
45274;SDS011;31019;43.780;25.948;2023-02-18T07:03:05;26.17;;;23.77;;
45274;SDS011;31019;43.780;25.948;2023-02-18T07:05:32;28.17;;;25.67;;
45274;SDS011;31019;43.780;25.948;2023-02-18T07:08:00;28.15;;;25.98;;
45274;SDS011;31019;43.780;25.948;2023-02-18T07:10:27;27.65;;;25.48;;
45274;SDS011;31019;43.780;25.948;2023-02-18T07:12:54;25.20;;;23.23;;
45274;SDS011;31019;43.780;25.948;2023-02-18T07:15:20;27.45;;;25.27;;
45274;SDS011;31019;43.780;25.948;2023-02-18T07:17:49;27.17;;;24.38;;
45274;SDS011;31019;43.780;25.948;2023-02-18T07:20:16;25.33;;;23.30;;
45274;SDS011;31019;43.780;25.948;2023-02-18T07:22:43;26.65;;;24.38;;
45274;SDS011;31019;43.780;25.948;2023-02-18T07:25:10;28.08;;;25.83;;
45274;SDS011;31019;43.780;25.948;2023-02-18T07:27:37;29.63;;;26.92;;
45274;SDS011;31019;43.780;25.948;2023-02-18T07:30:04;29.25;;;26.75;;
45274;SDS011;31019;43.780;25.948;2023-02-18T07:32:32;22.35;;;20.48;;
45274;SDS011;31019;43.780;25.948;2023-02-18T07:35:00;25.52;;;23.17;;
45274;SDS011;31019;43.780;25.948;2023-02-18T07:37:27;27.23;;;24.95;;
45274;SDS011;31019;43.780;25.948;2023-02-18T07:39:54;28.10;;;25.73;;
45274;SDS011;31019;43.780;25.948;2023-02-18T07:42:21;29.85;;;26.75;;
45274;SDS011;31019;43.780;25.948;2023-02-18T07:44:48;32.05;;;29.75;;
45274;SDS011;31019;43.780;25.948;2023-02-18T07:47:15;31.10;;;28.40;;
45274;SDS011;31019;43.780;25.948;2023-02-18T07:49:43;25.55;;;23.35;;
45274;SDS011;31019;43.780;25.948;2023-02-18T07:52:12;28.33;;;25.88;;
45274;SDS011;31019;43.780;25.948;2023-02-18T07:54:39;28.75;;;26.55;;
45274;SDS011;31019;43.780;25.948;2023-02-18T07:57:05;28.65;;;26.55;;
45274;SDS011;31019;43.780;25.948;2023-02-18T07:59:32;25.85;;;23.73;;
45274;SDS011;31019;43.780;25.948;2023-02-18T08:01:59;24.70;;;22.67;;
45274;SDS011;31019;43.780;25.948;2023-02-18T08:04:26;22.77;;;20.80;;
45274;SDS011;31019;43.780;25.948;2023-02-18T08:06:52;24.02;;;21.95;;
45274;SDS011;31019;43.780;25.948;2023-02-18T08:09:20;25.20;;;23.15;;
45274;SDS011;31019;43.780;25.948;2023-02-18T08:11:47;25.20;;;22.75;;
45274;SDS011;31019;43.780;25.948;2023-02-18T08:14:14;24.20;;;22.30;;
45274;SDS011;31019;43.780;25.948;2023-02-18T08:16:40;28.92;;;26.52;;
45274;SDS011;31019;43.780;25.948;2023-02-18T08:19:07;28.73;;;26.05;;
45274;SDS011;31019;43.780;25.948;2023-02-18T08:21:34;29.27;;;26.42;;
45274;SDS011;31019;43.780;25.948;2023-02-18T08:24:01;29.60;;;27.02;;
45274;SDS011;31019;43.780;25.948;2023-02-18T08:26:29;28.33;;;25.83;;
45274;SDS011;31019;43.780;25.948;2023-02-18T08:28:56;25.90;;;23.67;;
45274;SDS011;31019;43.780;25.948;2023-02-18T08:31:23;23.05;;;21.15;;
45274;SDS011;31019;43.780;25.948;2023-02-18T08:33:51;25.00;;;22.80;;
45274;SDS011;31019;43.780;25.948;2023-02-18T08:36:18;27.80;;;25.50;;
45274;SDS011;31019;43.780;25.948;2023-02-18T08:38:45;25.25;;;23.05;;
45274;SDS011;31019;43.780;25.948;2023-02-18T08:41:12;25.13;;;22.92;;
45274;SDS011;31019;43.780;25.948;2023-02-18T08:43:41;24.85;;;22.60;;
45274;SDS011;31019;43.780;25.948;2023-02-18T08:46:08;23.98;;;21.63;;
45274;SDS011;31019;43.780;25.948;2023-02-18T08:48:34;27.05;;;24.75;;
45274;SDS011;31019;43.780;25.948;2023-02-18T08:51:09;30.38;;;28.08;;
45274;SDS011;31019;43.780;25.948;2023-02-18T08:53:37;26.55;;;24.05;;
45274;SDS011;31019;43.780;25.948;2023-02-18T08:56:04;29.80;;;27.05;;
45274;SDS011;31019;43.780;25.948;2023-02-18T08:58:32;25.50;;;23.45;;
45274;SDS011;31019;43.780;25.948;2023-02-18T09:01:03;31.17;;;28.52;;
45274;SDS011;31019;43.780;25.948;2023-02-18T09:03:31;26.40;;;24.40;;
45274;SDS011;31019;43.780;25.948;2023-02-18T09:05:58;28.65;;;26.35;;
45274;SDS011;31019;43.780;25.948;2023-02-18T09:08:25;29.35;;;26.77;;
45274;SDS011;31019;43.780;25.948;2023-02-18T09:10:53;27.33;;;25.33;;
45274;SDS011;31019;43.780;25.948;2023-02-18T09:13:21;31.23;;;28.42;;
45274;SDS011;31019;43.780;25.948;2023-02-18T09:15:54;25.00;;;22.70;;
45274;SDS011;31019;43.780;25.948;2023-02-18T09:18:24;26.15;;;23.85;;
45274;SDS011;31019;43.780;25.948;2023-02-18T09:20:51;27.65;;;25.23;;
45274;SDS011;31019;43.780;25.948;2023-02-18T09:23:21;29.00;;;26.73;;
45274;SDS011;31019;43.780;25.948;2023-02-18T09:25:48;25.50;;;23.33;;
45274;SDS011;31019;43.780;25.948;2023-02-18T09:28:15;28.63;;;26.20;;
45274;SDS011;31019;43.780;25.948;2023-02-18T09:30:42;27.05;;;24.77;;
45274;SDS011;31019;43.780;25.948;2023-02-18T09:33:08;24.90;;;22.90;;
45274;SDS011;31019;43.780;25.948;2023-02-18T09:35:38;24.17;;;21.95;;
45274;SDS011;31019;43.780;25.948;2023-02-18T09:38:06;23.60;;;21.23;;
45274;SDS011;31019;43.780;25.948;2023-02-18T09:40:33;27.95;;;25.65;;
45274;SDS011;31019;43.780;25.948;2023-02-18T09:43:02;24.10;;;22.05;;
45274;SDS011;31019;43.780;25.948;2023-02-18T09:45:30;26.13;;;23.92;;
45274;SDS011;31019;43.780;25.948;2023-02-18T09:47:57;24.10;;;22.08;;
45274;SDS011;31019;43.780;25.948;2023-02-18T09:50:28;28.20;;;25.77;;
45274;SDS011;31019;43.780;25.948;2023-02-18T09:52:59;25.40;;;23.33;;
45274;SDS011;31019;43.780;25.948;2023-02-18T09:55:28;27.38;;;25.00;;
45274;SDS011;31019;43.780;25.948;2023-02-18T09:57:58;29.17;;;26.52;;
45274;SDS011;31019;43.780;25.948;2023-02-18T10:00:28;26.88;;;24.58;;
45274;SDS011;31019;43.780;25.948;2023-02-18T10:02:58;25.05;;;22.83;;
45274;SDS011;31019;43.780;25.948;2023-02-18T10:05:29;27.02;;;24.67;;
45274;SDS011;31019;43.780;25.948;2023-02-18T10:07:59;28.10;;;25.65;;
45274;SDS011;31019;43.780;25.948;2023-02-18T10:10:32;25.35;;;23.35;;
45274;SDS011;31019;43.780;25.948;2023-02-18T10:13:06;25.00;;;22.83;;
45274;SDS011;31019;43.780;25.948;2023-02-18T10:15:39;25.23;;;22.88;;
45274;SDS011;31019;43.780;25.948;2023-02-18T10:18:12;27.08;;;24.48;;
45274;SDS011;31019;43.780;25.948;2023-02-18T10:20:46;25.85;;;23.55;;
45274;SDS011;31019;43.780;25.948;2023-02-18T10:23:16;24.25;;;22.17;;
45274;SDS011;31019;43.780;25.948;2023-02-18T10:25:45;23.92;;;21.88;;
45274;SDS011;31019;43.780;25.948;2023-02-18T10:28:14;23.63;;;21.52;;
45274;SDS011;31019;43.780;25.948;2023-02-18T10:30:45;26.23;;;23.80;;
45274;SDS011;31019;43.780;25.948;2023-02-18T10:33:22;26.02;;;23.80;;
45274;SDS011;31019;43.780;25.948;2023-02-18T10:35:59;26.73;;;24.40;;
45274;SDS011;31019;43.780;25.948;2023-02-18T10:38:39;26.05;;;23.70;;
45274;SDS011;31019;43.780;25.948;2023-02-18T10:41:21;23.33;;;21.23;;
45274;SDS011;31019;43.780;25.948;2023-02-18T10:43:57;25.13;;;23.17;;
45274;SDS011;31019;43.780;25.948;2023-02-18T10:46:36;24.67;;;22.08;;
45274;SDS011;31019;43.780;25.948;2023-02-18T10:49:12;27.58;;;25.17;;
45274;SDS011;31019;43.780;25.948;2023-02-18T10:51:54;28.65;;;26.35;;
45274;SDS011;31019;43.780;25.948;2023-02-18T10:54:24;24.38;;;22.33;;
45274;SDS011;31019;43.780;25.948;2023-02-18T10:56:57;23.15;;;20.95;;
45274;SDS011;31019;43.780;25.948;2023-02-18T10:59:25;24.03;;;21.80;;
45274;SDS011;31019;43.780;25.948;2023-02-18T11:01:57;25.52;;;23.23;;
45274;SDS011;31019;43.780;25.948;2023-02-18T11:04:28;27.20;;;25.00;;
45274;SDS011;31019;43.780;25.948;2023-02-18T11:07:03;23.58;;;21.13;;
45274;SDS011;31019;43.780;25.948;2023-02-18T11:09:36;26.40;;;23.98;;
45274;SDS011;31019;43.780;25.948;2023-02-18T11:12:10;27.70;;;25.60;;
45274;SDS011;31019;43.780;25.948;2023-02-18T11:14:41;26.15;;;23.85;;
45274;SDS011;31019;43.780;25.948;2023-02-18T11:17:14;26.02;;;23.73;;
45274;SDS011;31019;43.780;25.948;2023-02-18T11:19:45;25.60;;;23.30;;
45274;SDS011;31019;43.780;25.948;2023-02-18T11:22:19;24.27;;;22.10;;
45274;SDS011;31019;43.780;25.948;2023-02-18T11:24:48;26.10;;;23.75;;
45274;SDS011;31019;43.780;25.948;2023-02-18T11:27:21;26.52;;;24.13;;
45274;SDS011;31019;43.780;25.948;2023-02-18T11:29:51;26.20;;;23.92;;
45274;SDS011;31019;43.780;25.948;2023-02-18T11:32:25;26.05;;;23.83;;
45274;SDS011;31019;43.780;25.948;2023-02-18T11:34:53;28.05;;;25.00;;
45274;SDS011;31019;43.780;25.948;2023-02-18T11:37:20;26.17;;;24.08;;
45274;SDS011;31019;43.780;25.948;2023-02-18T11:39:50;29.95;;;27.58;;
45274;SDS011;31019;43.780;25.948;2023-02-18T11:42:20;27.80;;;25.30;;
45274;SDS011;31019;43.780;25.948;2023-02-18T11:44:49;26.75;;;24.23;;
45274;SDS011;31019;43.780;25.948;2023-02-18T11:47:20;25.15;;;23.02;;
45274;SDS011;31019;43.780;25.948;2023-02-18T11:50:05;25.88;;;23.70;;
45274;SDS011;31019;43.780;25.948;2023-02-18T11:52:41;27.63;;;25.13;;
45274;SDS011;31019;43.780;25.948;2023-02-18T11:55:14;25.27;;;22.95;;
45274;SDS011;31019;43.780;25.948;2023-02-18T11:57:44;27.35;;;24.60;;
45274;SDS011;31019;43.780;25.948;2023-02-18T12:00:18;24.73;;;22.17;;
45274;SDS011;31019;43.780;25.948;2023-02-18T12:05:16;25.80;;;23.50;;
45274;SDS011;31019;43.780;25.948;2023-02-18T12:07:47;24.38;;;22.17;;
45274;SDS011;31019;43.780;25.948;2023-02-18T12:10:20;24.77;;;22.38;;
45274;SDS011;31019;43.780;25.948;2023-02-18T12:12:53;23.35;;;21.20;;
45274;SDS011;31019;43.780;25.948;2023-02-18T12:15:28;26.35;;;23.88;;
45274;SDS011;31019;43.780;25.948;2023-02-18T12:21:12;25.83;;;23.10;;
45274;SDS011;31019;43.780;25.948;2023-02-18T12:23:47;25.27;;;23.00;;
45274;SDS011;31019;43.780;25.948;2023-02-18T12:26:27;26.02;;;23.80;;
45274;SDS011;31019;43.780;25.948;2023-02-18T12:29:04;24.42;;;22.40;;
45274;SDS011;31019;43.780;25.948;2023-02-18T12:31:46;25.08;;;22.67;;
45274;SDS011;31019;43.780;25.948;2023-02-18T12:34:36;24.88;;;22.65;;
45274;SDS011;31019;43.780;25.948;2023-02-18T12:37:13;28.73;;;26.33;;
45274;SDS011;31019;43.780;25.948;2023-02-18T12:39:59;28.17;;;25.80;;
45274;SDS011;31019;43.780;25.948;2023-02-18T12:42:39;25.30;;;22.65;;
45274;SDS011;31019;43.780;25.948;2023-02-18T12:45:26;24.08;;;21.92;;
45274;SDS011;31019;43.780;25.948;2023-02-18T12:48:10;27.33;;;24.70;;
45274;SDS011;31019;43.780;25.948;2023-02-18T12:51:04;29.25;;;26.85;;
45274;SDS011;31019;43.780;25.948;2023-02-18T12:53:53;24.90;;;22.67;;
45274;SDS011;31019;43.780;25.948;2023-02-18T12:56:42;26.33;;;23.96;;
45274;SDS011;31019;43.780;25.948;2023-02-18T12:59:24;25.70;;;23.13;;
45274;SDS011;31019;43.780;25.948;2023-02-18T13:02:21;28.33;;;26.02;;
45274;SDS011;31019;43.780;25.948;2023-02-18T13:05:03;24.55;;;22.30;;
45274;SDS011;31019;43.780;25.948;2023-02-18T13:07:39;24.38;;;22.33;;
45274;SDS011;31019;43.780;25.948;2023-02-18T13:10:27;24.25;;;22.05;;
45274;SDS011;31019;43.780;25.948;2023-02-18T13:13:18;26.95;;;24.38;;
45274;SDS011;31019;43.780;25.948;2023-02-18T13:15:49;25.48;;;23.13;;
45274;SDS011;31019;43.780;25.948;2023-02-18T13:18:20;25.00;;;22.80;;
45274;SDS011;31019;43.780;25.948;2023-02-18T13:20:51;26.15;;;23.90;;
45274;SDS011;31019;43.780;25.948;2023-02-18T13:23:21;23.55;;;21.33;;
45274;SDS011;31019;43.780;25.948;2023-02-18T13:25:52;28.73;;;26.42;;
45274;SDS011;31019;43.780;25.948;2023-02-18T13:28:22;26.48;;;23.83;;
45274;SDS011;31019;43.780;25.948;2023-02-18T13:31:00;23.00;;;21.00;;
45274;SDS011;31019;43.780;25.948;2023-02-18T13:33:39;23.48;;;21.33;;
45274;SDS011;31019;43.780;25.948;2023-02-18T13:36:15;28.88;;;26.10;;
45274;SDS011;31019;43.780;25.948;2023-02-18T13:38:58;26.38;;;24.23;;
45274;SDS011;31019;43.780;25.948;2023-02-18T13:44:00;27.17;;;24.67;;
45274;SDS011;31019;43.780;25.948;2023-02-18T13:46:28;25.83;;;23.40;;
45274;SDS011;31019;43.780;25.948;2023-02-18T13:49:03;27.02;;;24.45;;
45274;SDS011;31019;43.780;25.948;2023-02-18T13:51:33;22.08;;;20.27;;
45274;SDS011;31019;43.780;25.948;2023-02-18T13:54:09;25.35;;;22.70;;
45274;SDS011;31019;43.780;25.948;2023-02-18T13:56:44;23.90;;;21.80;;
45274;SDS011;31019;43.780;25.948;2023-02-18T13:59:16;24.70;;;22.35;;
45274;SDS011;31019;43.780;25.948;2023-02-18T14:01:47;23.10;;;21.10;;
45274;SDS011;31019;43.780;25.948;2023-02-18T14:13:00;23.75;;;21.75;;
45274;SDS011;31019;43.780;25.948;2023-02-18T14:15:51;23.77;;;21.58;;
45274;SDS011;31019;43.780;25.948;2023-02-18T14:18:25;22.02;;;20.25;;
45274;SDS011;31019;43.780;25.948;2023-02-18T14:21:04;24.85;;;22.65;;
45274;SDS011;31019;43.780;25.948;2023-02-18T14:23:55;28.65;;;26.35;;
45274;SDS011;31019;43.780;25.948;2023-02-18T14:26:24;25.48;;;23.08;;
45274;SDS011;31019;43.780;25.948;2023-02-18T14:28:55;23.27;;;21.27;;
45274;SDS011;31019;43.780;25.948;2023-02-18T14:31:28;26.30;;;23.77;;
45274;SDS011;31019;43.780;25.948;2023-02-18T14:34:17;25.17;;;23.17;;
45274;SDS011;31019;43.780;25.948;2023-02-18T14:37:09;24.15;;;21.98;;
45274;SDS011;31019;43.780;25.948;2023-02-18T14:39:49;23.67;;;21.38;;
45274;SDS011;31019;43.780;25.948;2023-02-18T14:42:27;23.25;;;21.20;;
45274;SDS011;31019;43.780;25.948;2023-02-18T14:45:13;26.45;;;24.15;;
45274;SDS011;31019;43.780;25.948;2023-02-18T14:47:53;24.42;;;22.23;;
45274;SDS011;31019;43.780;25.948;2023-02-18T14:50:34;22.27;;;20.27;;
45274;SDS011;31019;43.780;25.948;2023-02-18T14:53:04;24.30;;;22.25;;
45274;SDS011;31019;43.780;25.948;2023-02-18T14:55:36;23.38;;;21.38;;
45274;SDS011;31019;43.780;25.948;2023-02-18T14:58:07;25.02;;;23.02;;
45274;SDS011;31019;43.780;25.948;2023-02-18T15:00:42;24.17;;;22.17;;
45274;SDS011;31019;43.780;25.948;2023-02-18T15:03:10;23.23;;;21.17;;